Strona główna
METAR-TAF:

METAR-TAF

Lotnisko :

Port lotniczy Sørkjosen

Sørkjosen, Norwegia

Szerokość geograficzna: 69-47N, Długość geograficzna: 020-58E, wysokość: 0 m

Aktualna obserwacja pogody

Raport powstał 36 minut temu, godzina 17:20 UTC
Wiatr 10 kt od północny zachód
Temperatura 3°C
Wilgotność 81%
Ciśnienie 1019 hPa
Widzialność 10 km lub więcej
Mało chmury na wysokości 2000 ft
Rozproszone chmury na wysokości 3000 ft
Przerywane chmury na wysokości 4000 ft

METAR: ENSR 151720Z 31010KT 9999 FEW020 SCT030 BKN040 03/M00 Q1019 RMK WIND 1119FT 31017KT

czas: 18:56 (17:56 UTC)


TAF: brakujący

Obserwacja i prognoza pogody dla ponad 4000 lotnisk (raport METAR i TAF).

Dostępne stacje oznaczono żółtymi i czerwonymi punktami na mapie.

Najedź kursorem aby zobaczyć nazwę stacji.

Kliknij aby zobaczyć obserwacje i prognozy pogody.

Aby zmienić mapę: kliknij na zielony przycisk z czarnym krzyżykiem, aby powiększyć; na zielony przycisk z myślnikiem, aby pomniejszyć; na zielone strzałki, aby przejść do map sąsiednich.


METAR-TAF: